createdAt,value
2022-10-08T00:02:19.547Z,18.83
2022-10-08T00:06:28.201Z,17.95
2022-10-08T00:10:30.448Z,17.90
2022-10-08T00:14:32.132Z,18.48
2022-10-08T00:18:34.097Z,18.60
2022-10-08T00:22:35.656Z,17.85
2022-10-08T00:26:43.642Z,20.38
2022-10-08T00:30:46.174Z,18.80
2022-10-08T00:34:48.096Z,18.27
2022-10-08T00:38:54.308Z,18.90
2022-10-08T00:42:56.368Z,18.20
2022-10-08T00:47:32.773Z,18.52
2022-10-08T00:51:34.748Z,19.02
2022-10-08T00:55:43.619Z,20.33
2022-10-08T00:59:47.017Z,20.20
2022-10-08T01:03:48.743Z,20.77
2022-10-08T01:08:15.303Z,21.60
2022-10-08T01:12:55.653Z,18.65
2022-10-08T01:17:07.940Z,21.80
2022-10-08T01:21:22.802Z,19.15
2022-10-08T01:25:45.691Z,19.00
2022-10-08T01:29:50.269Z,18.85
2022-10-08T01:34:01.928Z,19.17
2022-10-08T01:38:07.070Z,19.33
2022-10-08T01:42:10.992Z,19.77
2022-10-08T01:46:25.357Z,21.10
2022-10-08T01:50:33.013Z,21.23
2022-10-08T01:54:37.306Z,21.30
2022-10-08T01:58:54.349Z,20.35
2022-10-08T02:02:56.828Z,21.30
2022-10-08T02:07:08.937Z,20.63
2022-10-08T02:11:10.705Z,21.73
2022-10-08T02:15:23.546Z,22.00
2022-10-08T02:19:41.925Z,20.38
2022-10-08T02:23:54.024Z,22.30
2022-10-08T02:28:15.958Z,21.60
2022-10-08T02:32:35.905Z,20.98
2022-10-08T02:36:41.895Z,20.77
2022-10-08T02:40:48.605Z,23.08
2022-10-08T02:45:04.154Z,21.85
2022-10-08T02:49:12.116Z,21.15
2022-10-08T02:53:18.300Z,22.00
2022-10-08T02:57:32.055Z,20.05
2022-10-08T03:01:55.719Z,20.42
2022-10-08T03:06:02.154Z,21.20
2022-10-08T03:10:06.330Z,21.10
2022-10-08T03:14:12.419Z,20.45
2022-10-08T03:18:14.783Z,21.50
2022-10-08T03:22:41.344Z,21.98
2022-10-08T03:26:44.102Z,24.90
2022-10-08T03:30:47.508Z,26.52
2022-10-08T03:34:49.579Z,22.30
2022-10-08T03:38:52.350Z,24.02
2022-10-08T03:42:54.232Z,25.50
2022-10-08T03:46:55.828Z,24.38
2022-10-08T03:51:04.438Z,24.27
2022-10-08T03:55:06.979Z,25.00
2022-10-08T03:59:08.832Z,26.23
2022-10-08T04:03:10.890Z,24.80
2022-10-08T04:07:12.749Z,25.92
2022-10-08T04:11:16.414Z,27.05
2022-10-08T04:15:18.546Z,24.95
2022-10-08T04:19:20.407Z,23.95
2022-10-08T04:23:22.287Z,26.17
2022-10-08T04:27:24.012Z,24.67
2022-10-08T04:31:26.043Z,27.10
2022-10-08T04:35:27.775Z,25.95
2022-10-08T04:39:29.724Z,27.48
2022-10-08T04:43:31.974Z,27.00
2022-10-08T04:47:34.014Z,25.25
2022-10-08T04:51:35.731Z,24.92
2022-10-08T04:55:37.764Z,26.13
2022-10-08T04:59:53.763Z,25.73
2022-10-08T05:04:01.282Z,24.95
2022-10-08T05:08:03.172Z,24.38
2022-10-08T05:12:05.373Z,25.15
2022-10-08T05:16:12.605Z,25.90
2022-10-08T05:20:14.673Z,24.65
2022-10-08T05:24:16.350Z,24.15
2022-10-08T05:28:18.222Z,22.83
2022-10-08T05:32:20.180Z,24.13
2022-10-08T05:36:34.713Z,23.67
2022-10-08T05:40:36.277Z,24.08
2022-10-08T05:44:38.744Z,24.05
2022-10-08T05:48:42.055Z,24.30
2022-10-08T05:52:44.131Z,23.65
2022-10-08T05:56:46.537Z,24.75
2022-10-08T06:00:57.499Z,24.67
2022-10-08T06:04:59.273Z,24.42
2022-10-08T06:09:02.004Z,23.17
2022-10-08T06:13:03.728Z,23.05
2022-10-08T06:17:05.567Z,23.05
2022-10-08T06:21:13.906Z,21.05
2022-10-08T06:25:15.918Z,20.98
2022-10-08T06:29:18.813Z,20.67
2022-10-08T06:33:21.353Z,20.10
2022-10-08T06:37:23.057Z,20.13
2022-10-08T06:41:26.062Z,18.35
2022-10-08T06:45:27.921Z,19.17
2022-10-08T06:49:30.112Z,19.40
2022-10-08T06:53:32.370Z,20.02
2022-10-08T06:57:34.333Z,19.52
2022-10-08T07:01:36.523Z,19.05
2022-10-08T07:05:38.729Z,18.63
2022-10-08T07:09:40.551Z,18.15
2022-10-08T07:13:43.510Z,18.15
2022-10-08T07:17:45.170Z,17.52
2022-10-08T07:21:47.319Z,16.35
2022-10-08T07:26:06.447Z,17.88
2022-10-08T07:30:08.567Z,16.88
2022-10-08T07:34:13.113Z,17.35
2022-10-08T07:38:18.836Z,16.50
2022-10-08T07:42:20.518Z,17.48
2022-10-08T07:46:22.751Z,16.08
2022-10-08T07:50:24.463Z,16.02
2022-10-08T07:54:26.406Z,14.45
2022-10-08T07:58:28.089Z,15.68
2022-10-08T08:02:30.001Z,16.35
2022-10-08T08:06:33.346Z,14.57
2022-10-08T08:10:35.477Z,15.60
2022-10-08T08:14:37.142Z,15.63
2022-10-08T08:18:41.283Z,16.05
2022-10-08T08:22:42.943Z,14.88
2022-10-08T08:26:45.094Z,14.93
2022-10-08T08:30:46.702Z,13.57
2022-10-08T08:34:48.798Z,15.30
2022-10-08T08:38:50.438Z,12.90
2022-10-08T08:42:56.818Z,12.57
2022-10-08T08:47:04.251Z,12.57
2022-10-08T08:51:06.171Z,12.43
2022-10-08T08:55:17.334Z,13.40
2022-10-08T08:59:27.299Z,11.90
2022-10-08T09:03:34.902Z,11.68
2022-10-08T09:07:45.767Z,12.18
2022-10-08T09:11:47.971Z,12.05
2022-10-08T09:15:50.360Z,10.82
2022-10-08T09:19:52.560Z,11.70
2022-10-08T09:23:54.439Z,11.43
2022-10-08T09:28:00.178Z,11.25
2022-10-08T09:32:02.306Z,11.07
2022-10-08T09:36:04.181Z,10.20
2022-10-08T09:40:17.561Z,11.05
2022-10-08T09:44:21.706Z,11.13
2022-10-08T09:48:28.624Z,10.20
2022-10-08T09:52:32.785Z,9.93
2022-10-08T09:56:35.055Z,10.77
2022-10-08T10:00:39.475Z,11.80
2022-10-08T10:04:41.496Z,10.90
2022-10-08T10:09:16.872Z,11.70
2022-10-08T10:13:34.335Z,10.75
2022-10-08T10:17:52.159Z,12.00
2022-10-08T10:22:07.867Z,10.30
2022-10-08T10:26:29.260Z,9.65
2022-10-08T10:30:41.838Z,10.13
2022-10-08T10:34:47.626Z,11.20
2022-10-08T10:39:03.021Z,10.02
2022-10-08T10:43:20.791Z,10.35
2022-10-08T10:47:29.588Z,10.82
2022-10-08T10:51:48.840Z,9.65
2022-10-08T10:56:21.598Z,9.25
2022-10-08T11:00:27.983Z,10.05
2022-10-08T11:04:45.925Z,10.15
2022-10-08T11:09:01.829Z,9.02
2022-10-08T11:13:36.577Z,10.35
2022-10-08T11:17:41.334Z,10.35
2022-10-08T11:26:25.503Z,10.35
2022-10-08T11:30:48.233Z,11.02
2022-10-08T11:35:01.266Z,11.27
2022-10-08T11:39:16.046Z,11.90
2022-10-08T11:43:30.678Z,10.70
2022-10-08T11:47:46.266Z,10.82
2022-10-08T11:51:52.345Z,10.13
2022-10-08T11:55:57.004Z,11.02
2022-10-08T12:00:07.807Z,12.40
2022-10-08T12:04:22.263Z,11.02
2022-10-08T12:08:47.885Z,10.90
2022-10-08T12:12:49.846Z,11.18
2022-10-08T12:16:54.684Z,12.40
2022-10-08T12:21:20.420Z,12.35
2022-10-08T12:25:36.733Z,11.82
2022-10-08T12:29:58.646Z,12.88
2022-10-08T12:34:14.422Z,12.23
2022-10-08T12:38:37.371Z,11.82
2022-10-08T12:42:41.066Z,12.20
2022-10-08T12:46:58.417Z,12.55
2022-10-08T12:51:18.440Z,12.82
2022-10-08T12:55:23.232Z,12.82
2022-10-08T12:59:27.567Z,13.68
2022-10-08T13:03:29.326Z,14.43
2022-10-08T13:07:33.999Z,12.93
2022-10-08T13:11:35.911Z,13.88
2022-10-08T13:15:37.807Z,13.30
2022-10-08T13:19:40.826Z,13.18
2022-10-08T13:23:44.200Z,14.52
2022-10-08T13:28:05.860Z,13.27
2022-10-08T13:32:13.809Z,13.38
2022-10-08T13:36:22.116Z,13.50
2022-10-08T13:40:24.274Z,14.52
2022-10-08T13:44:27.516Z,14.55
2022-10-08T13:48:29.791Z,14.95
2022-10-08T13:52:33.855Z,13.73
2022-10-08T13:56:35.667Z,14.45
2022-10-08T14:00:40.020Z,14.38
2022-10-08T14:04:42.602Z,15.38
2022-10-08T14:08:44.423Z,15.45
2022-10-08T14:12:46.710Z,15.32
2022-10-08T14:16:48.461Z,14.05
2022-10-08T14:20:51.356Z,14.38
2022-10-08T14:24:53.726Z,13.90
2022-10-08T14:28:56.789Z,14.15
2022-10-08T14:32:58.689Z,15.70
2022-10-08T14:37:00.649Z,14.23
2022-10-08T14:41:02.327Z,14.20
2022-10-08T14:45:04.745Z,15.90
2022-10-08T14:49:06.631Z,13.93
2022-10-08T14:53:08.488Z,14.27
2022-10-08T14:57:10.548Z,12.95
2022-10-08T15:01:12.547Z,13.80
2022-10-08T15:05:14.487Z,14.27
2022-10-08T15:09:16.876Z,14.68
2022-10-08T15:13:18.832Z,14.80
2022-10-08T15:17:20.702Z,15.27
2022-10-08T15:21:22.522Z,16.88
2022-10-08T15:25:24.484Z,17.63
2022-10-08T15:29:26.133Z,16.25
2022-10-08T15:33:28.081Z,17.55
2022-10-08T15:37:29.861Z,19.08
2022-10-08T15:41:35.934Z,17.90
2022-10-08T15:45:44.085Z,17.98
2022-10-08T15:49:46.193Z,18.02
2022-10-08T15:53:47.983Z,17.83
2022-10-08T15:57:49.823Z,20.70
2022-10-08T16:01:51.632Z,18.75
2022-10-08T16:05:59.485Z,18.17
2022-10-08T16:10:01.221Z,19.63
2022-10-08T16:14:06.511Z,20.00
2022-10-08T16:18:08.171Z,19.35
2022-10-08T16:22:10.077Z,21.52
2022-10-08T16:26:13.436Z,22.58
2022-10-08T16:30:15.277Z,21.50
2022-10-08T16:34:21.164Z,22.20
2022-10-08T16:38:23.188Z,31.17
2022-10-08T16:42:25.716Z,59.72
2022-10-08T16:46:31.167Z,38.20
2022-10-08T16:50:40.149Z,51.10
2022-10-08T16:54:42.096Z,39.75
2022-10-08T16:58:44.011Z,37.83
2022-10-08T17:02:46.230Z,41.05
2022-10-08T17:06:48.399Z,66.78
2022-10-08T17:10:50.213Z,52.65
2022-10-08T17:14:51.971Z,42.38
2022-10-08T17:18:57.302Z,44.22
2022-10-08T17:22:58.933Z,48.67
2022-10-08T17:27:00.843Z,47.70
2022-10-08T17:31:04.332Z,47.33
2022-10-08T17:35:06.544Z,45.05
2022-10-08T17:39:11.732Z,44.78
2022-10-08T17:43:13.534Z,69.60
2022-10-08T17:47:15.253Z,62.30
2022-10-08T17:51:19.492Z,64.60
2022-10-08T17:55:21.060Z,81.10
2022-10-08T17:59:22.924Z,65.88
2022-10-08T18:03:24.913Z,74.88
2022-10-08T18:07:26.740Z,65.70
2022-10-08T18:11:30.322Z,65.07
2022-10-08T18:15:36.610Z,72.40
2022-10-08T18:19:38.382Z,58.80
2022-10-08T18:23:45.989Z,60.28
2022-10-08T18:27:48.039Z,72.60
2022-10-08T18:31:49.909Z,82.80
2022-10-08T18:35:51.694Z,56.92
2022-10-08T18:39:53.706Z,63.53
2022-10-08T18:43:56.516Z,67.05
2022-10-08T18:47:59.057Z,62.67
2022-10-08T18:52:01.586Z,42.85
2022-10-08T18:56:06.467Z,44.80
2022-10-08T19:00:09.195Z,50.58
2022-10-08T19:04:17.168Z,39.42
2022-10-08T19:08:19.104Z,34.50
2022-10-08T19:12:20.961Z,32.85
2022-10-08T19:16:22.853Z,28.67
2022-10-08T19:20:24.746Z,32.00
2022-10-08T19:24:27.411Z,51.38
2022-10-08T19:28:29.476Z,78.63
2022-10-08T19:32:31.164Z,68.85
2022-10-08T19:36:36.713Z,40.40
2022-10-08T19:40:38.583Z,103.28
2022-10-08T19:44:40.573Z,94.32
2022-10-08T19:48:42.342Z,73.07
2022-10-08T19:52:46.546Z,40.85
2022-10-08T19:56:51.498Z,47.63
2022-10-08T20:01:08.562Z,52.95
2022-10-08T20:05:10.540Z,30.10
2022-10-08T20:09:13.268Z,31.27
2022-10-08T20:13:15.020Z,32.42
2022-10-08T20:17:17.200Z,30.08
2022-10-08T20:21:19.726Z,27.75
2022-10-08T20:25:22.801Z,44.78
2022-10-08T20:29:30.038Z,54.65
2022-10-08T20:33:32.750Z,61.35
2022-10-08T20:37:34.797Z,38.50
2022-10-08T20:41:36.700Z,37.05
2022-10-08T20:45:38.345Z,42.10
2022-10-08T20:49:40.226Z,40.22
2022-10-08T20:53:53.725Z,31.20
2022-10-08T20:57:55.859Z,32.30
2022-10-08T21:01:57.562Z,30.58
2022-10-08T21:06:00.471Z,35.97
2022-10-08T21:10:02.152Z,49.53
2022-10-08T21:14:06.856Z,26.10
2022-10-08T21:18:08.863Z,32.80
2022-10-08T21:22:10.697Z,53.45
2022-10-08T21:26:16.763Z,36.75
2022-10-08T21:30:18.665Z,24.80
2022-10-08T21:34:20.423Z,20.55
2022-10-08T21:38:22.502Z,20.05
2022-10-08T21:42:24.202Z,17.77
2022-10-08T21:46:28.743Z,17.63
2022-10-08T21:50:35.262Z,16.08
2022-10-08T21:54:37.872Z,17.17
2022-10-08T21:58:45.334Z,16.80
2022-10-08T22:02:47.403Z,15.43
2022-10-08T22:06:55.252Z,17.15
2022-10-08T22:10:57.608Z,15.63
2022-10-08T22:14:59.269Z,16.55
2022-10-08T22:19:01.260Z,16.02
2022-10-08T22:23:02.969Z,17.33
2022-10-08T22:27:04.996Z,19.00
2022-10-08T22:31:08.706Z,16.80
2022-10-08T22:35:10.577Z,16.13
2022-10-08T22:39:12.764Z,16.25
2022-10-08T22:43:15.129Z,15.90
2022-10-08T22:47:16.846Z,15.57
2022-10-08T22:51:21.598Z,15.13
2022-10-08T22:55:23.328Z,14.25
2022-10-08T22:59:25.296Z,13.77
2022-10-08T23:03:27.439Z,11.07
2022-10-08T23:07:29.531Z,12.52
2022-10-08T23:11:32.015Z,12.25
2022-10-08T23:15:33.817Z,13.25
2022-10-08T23:19:35.553Z,10.70
2022-10-08T23:23:37.464Z,11.38
2022-10-08T23:27:39.213Z,11.00
2022-10-08T23:31:41.319Z,10.20
2022-10-08T23:35:43.272Z,9.70
2022-10-08T23:39:45.141Z,9.48
2022-10-08T23:43:48.850Z,9.65
2022-10-08T23:47:50.702Z,10.35
2022-10-08T23:51:52.450Z,10.00
2022-10-08T23:55:54.621Z,11.02
2022-10-08T23:59:56.797Z,10.75
